Time;durP1;ratioP1;P1;durP2;ratioP2;P2;SDS_P1;SDS_P2;PMS_P1;PMS_P2;Temp;Humidity;BMP_temperature;BMP_pressure;BME280_temperature;BME280_humidity;BME280_pressure;Samples;Min_cycle;Max_cycle;Signal;HPM_P1;HPM_P2
2023/04/29 00:00:46;;;;;;;23.85;18.52;;;10.20;99.90;;;;;;5055374;28;20783;-77
2023/04/29 00:03:12;;;;;;;24.65;18.95;;;10.20;99.90;;;;;;5054009;28;20195;-77
2023/04/29 00:05:38;;;;;;;21.77;18.23;;;10.20;99.90;;;;;;5054631;28;20669;-77
2023/04/29 00:08:04;;;;;;;24.88;18.92;;;10.20;99.90;;;;;;5058119;28;20222;-77
2023/04/29 00:10:30;;;;;;;26.80;19.50;;;10.20;99.90;;;;;;5056656;28;20214;-77
2023/04/29 00:12:55;;;;;;;27.17;18.85;;;10.20;99.90;;;;;;5053301;28;20219;-77
2023/04/29 00:15:21;;;;;;;23.92;18.48;;;10.20;99.90;;;;;;5054233;28;20269;-77
2023/04/29 00:17:47;;;;;;;24.02;18.73;;;10.20;99.90;;;;;;5057831;28;20231;-77
2023/04/29 00:20:12;;;;;;;25.02;19.70;;;10.20;99.90;;;;;;5054020;28;20313;-78
2023/04/29 00:22:38;;;;;;;23.90;18.95;;;10.20;99.90;;;;;;5052320;28;20290;-77
2023/04/29 00:25:05;;;;;;;26.23;19.92;;;10.20;99.90;;;;;;5056490;28;20179;-77
2023/04/29 00:27:32;;;;;;;26.95;20.00;;;10.30;99.90;;;;;;5051684;28;20192;-77
2023/04/29 00:29:57;;;;;;;24.30;19.83;;;10.30;99.90;;;;;;5057886;28;20286;-78
2023/04/29 00:32:23;;;;;;;26.70;20.30;;;10.20;99.90;;;;;;5053908;28;20200;-77
2023/04/29 00:34:49;;;;;;;29.33;20.33;;;10.20;99.90;;;;;;5052987;28;20188;-77
2023/04/29 00:37:15;;;;;;;27.23;20.88;;;10.20;99.90;;;;;;5057223;28;20199;-78
2023/04/29 00:39:41;;;;;;;27.80;19.05;;;10.20;99.90;;;;;;5053095;28;20180;-77
2023/04/29 00:42:08;;;;;;;28.80;20.02;;;10.10;99.90;;;;;;5053891;28;20219;-77
2023/04/29 00:44:33;;;;;;;26.08;19.88;;;10.20;99.90;;;;;;5056234;28;20544;-77
2023/04/29 00:46:59;;;;;;;27.48;20.50;;;10.20;99.90;;;;;;5057900;28;20275;-76
2023/04/29 00:49:26;;;;;;;28.08;20.65;;;10.20;99.90;;;;;;5052452;28;20181;-76
2023/04/29 00:51:53;;;;;;;25.90;20.88;;;10.20;99.90;;;;;;5055490;28;20176;-76
2023/04/29 00:54:19;;;;;;;26.35;19.50;;;10.20;99.90;;;;;;5066898;28;20439;-76
2023/04/29 00:56:45;;;;;;;27.45;20.58;;;10.20;99.90;;;;;;5056877;28;20206;-76
2023/04/29 00:59:11;;;;;;;29.80;21.15;;;10.10;99.90;;;;;;5051873;28;20280;-76
2023/04/29 01:01:38;;;;;;;29.30;20.13;;;10.10;99.90;;;;;;5052988;28;20753;-76
2023/04/29 01:04:05;;;;;;;27.73;20.48;;;10.10;99.90;;;;;;5048499;28;20207;-77
2023/04/29 01:06:50;;;;;;;29.08;19.92;;;10.10;99.90;;;;;;5053053;28;20242;-77
2023/04/29 01:09:33;;;;;;;26.92;18.25;;;10.10;99.90;;;;;;5051615;28;20245;-77
2023/04/29 01:12:11;;;;;;;27.15;19.55;;;10.10;99.90;;;;;;5045815;28;20203;-76
2023/04/29 01:14:39;;;;;;;25.35;19.10;;;10.10;99.90;;;;;;5052723;28;20249;-76
2023/04/29 01:17:09;;;;;;;27.27;19.02;;;10.10;99.90;;;;;;5053473;28;20577;-77
2023/04/29 01:19:49;;;;;;;21.25;17.85;;;10.20;99.90;;;;;;5051614;28;20172;-76
2023/04/29 01:22:16;;;;;;;22.63;18.45;;;10.20;99.90;;;;;;5046079;28;20199;-76
2023/04/29 01:24:42;;;;;;;22.55;18.13;;;10.20;99.90;;;;;;5057348;28;20523;-77
2023/04/29 01:27:28;;;;;;;19.92;17.15;;;10.30;99.90;;;;;;5057543;28;20199;-77
2023/04/29 01:30:05;;;;;;;21.08;16.48;;;10.20;99.90;;;;;;5051658;28;20183;-78
2023/04/29 01:32:48;;;;;;;22.73;18.50;;;10.20;99.90;;;;;;5052996;28;20183;-78
2023/04/29 01:35:29;;;;;;;24.60;18.60;;;10.20;99.90;;;;;;5051899;28;20182;-76
2023/04/29 01:38:03;;;;;;;25.08;19.08;;;10.30;99.90;;;;;;5057903;28;20687;-77
2023/04/29 01:40:40;;;;;;;22.88;18.02;;;10.30;99.90;;;;;;5050180;28;20179;-77
2023/04/29 01:43:10;;;;;;;26.08;17.58;;;10.30;99.90;;;;;;5052925;28;20199;-77
2023/04/29 01:45:40;;;;;;;27.50;18.98;;;10.30;99.90;;;;;;5053788;28;20188;-78
2023/04/29 01:48:06;;;;;;;30.42;20.90;;;10.30;99.90;;;;;;5052178;28;20180;-78
2023/04/29 01:50:32;;;;;;;29.73;18.95;;;10.40;99.90;;;;;;5051903;28;20174;-78
2023/04/29 01:52:57;;;;;;;26.05;18.40;;;10.30;99.90;;;;;;5050450;28;20188;-78
2023/04/29 01:55:23;;;;;;;24.90;17.80;;;10.30;99.90;;;;;;5057174;28;20239;-78
2023/04/29 01:57:49;;;;;;;27.20;20.23;;;10.30;99.90;;;;;;5071114;28;20208;-77
2023/04/29 02:00:14;;;;;;;30.75;20.17;;;10.30;99.90;;;;;;5052993;28;20184;-77
2023/04/29 02:02:40;;;;;;;28.27;19.40;;;10.30;99.90;;;;;;5053474;28;20231;-78
2023/04/29 02:05:06;;;;;;;31.60;20.75;;;10.30;99.90;;;;;;5053442;28;20811;-77
2023/04/29 02:07:32;;;;;;;25.17;19.33;;;10.30;99.90;;;;;;5053980;28;20554;-78
2023/04/29 02:09:57;;;;;;;26.17;18.73;;;10.40;99.90;;;;;;5055118;28;20237;-77
2023/04/29 02:12:23;;;;;;;26.13;18.65;;;10.40;99.90;;;;;;5054817;28;20743;-77
2023/04/29 02:14:52;;;;;;;23.27;18.10;;;10.30;99.90;;;;;;5050842;28;20534;-77
2023/04/29 02:17:17;;;;;;;30.33;19.00;;;10.30;99.90;;;;;;5051301;28;20210;-78
2023/04/29 02:19:43;;;;;;;25.90;17.63;;;10.30;99.90;;;;;;5051208;28;20187;-77
2023/04/29 02:22:11;;;;;;;25.27;18.48;;;10.30;99.90;;;;;;5049866;28;20228;-77
2023/04/29 02:24:37;;;;;;;26.15;18.40;;;10.30;99.90;;;;;;5065892;28;20187;-77
2023/04/29 02:27:04;;;;;;;29.23;18.15;;;10.30;99.90;;;;;;5052475;28;20333;-77
2023/04/29 02:29:31;;;;;;;24.33;17.58;;;10.30;99.90;;;;;;5050965;28;20175;-77
2023/04/29 02:31:56;;;;;;;29.98;18.10;;;10.30;99.90;;;;;;5051246;28;20260;-78
2023/04/29 02:34:22;;;;;;;29.23;18.58;;;10.30;99.90;;;;;;5055654;28;20228;-78
2023/04/29 02:36:48;;;;;;;31.45;17.27;;;10.30;99.90;;;;;;5061081;28;20702;-79
2023/04/29 02:39:14;;;;;;;43.80;19.05;;;10.40;99.90;;;;;;5067896;28;20187;-79
2023/04/29 02:41:41;;;;;;;26.10;18.75;;;10.40;99.90;;;;;;5052034;28;20522;-77
2023/04/29 02:44:06;;;;;;;28.10;19.05;;;10.50;99.90;;;;;;5053509;28;20619;-77
2023/04/29 02:46:34;;;;;;;29.70;20.77;;;10.50;99.90;;;;;;5054314;28;20195;-78
2023/04/29 02:49:00;;;;;;;27.63;18.75;;;10.40;99.90;;;;;;5061266;28;20239;-78
2023/04/29 02:51:26;;;;;;;27.48;18.95;;;10.40;99.90;;;;;;5057825;28;20168;-78
2023/04/29 02:53:52;;;;;;;32.38;20.88;;;10.40;99.90;;;;;;5057188;28;20650;-78
2023/04/29 02:56:18;;;;;;;33.35;19.83;;;10.40;99.90;;;;;;5058101;28;20274;-77
2023/04/29 02:58:43;;;;;;;37.90;18.52;;;10.40;99.90;;;;;;5054557;28;20219;-77
2023/04/29 03:01:10;;;;;;;30.67;18.83;;;10.40;99.90;;;;;;5050975;28;20192;-77
2023/04/29 03:03:35;;;;;;;28.33;18.98;;;10.40;99.90;;;;;;5046584;28;20191;-78
2023/04/29 03:06:02;;;;;;;35.28;18.95;;;10.40;99.90;;;;;;5058220;28;20217;-78
2023/04/29 03:08:27;;;;;;;26.48;18.00;;;10.40;99.90;;;;;;5054547;28;20180;-77
2023/04/29 03:10:53;;;;;;;30.42;18.00;;;10.40;99.90;;;;;;5067342;28;20713;-75
2023/04/29 03:13:19;;;;;;;27.10;17.88;;;10.40;99.90;;;;;;5052612;28;20183;-78
2023/04/29 03:15:45;;;;;;;25.30;16.77;;;10.40;99.90;;;;;;5050948;28;20171;-77
2023/04/29 03:18:10;;;;;;;23.35;15.68;;;10.40;99.90;;;;;;5054993;28;20218;-77
2023/04/29 03:20:36;;;;;;;23.38;16.95;;;10.40;99.90;;;;;;5057906;28;21149;-79
2023/04/29 03:23:02;;;;;;;24.77;16.65;;;10.50;99.90;;;;;;5064910;28;20199;-78
2023/04/29 03:25:28;;;;;;;22.23;15.75;;;10.50;99.90;;;;;;5060221;28;20183;-78
2023/04/29 03:27:53;;;;;;;24.00;15.90;;;10.50;99.90;;;;;;5061055;28;20183;-78
2023/04/29 03:30:19;;;;;;;21.30;14.82;;;10.50;99.90;;;;;;5058632;28;20179;-78
2023/04/29 03:32:44;;;;;;;21.20;16.80;;;10.50;99.90;;;;;;5063549;28;20306;-78
2023/04/29 03:35:10;;;;;;;24.55;15.75;;;10.40;99.90;;;;;;5056533;28;20181;-78
2023/04/29 03:37:36;;;;;;;21.55;15.32;;;10.40;99.90;;;;;;5057021;28;20227;-78
2023/04/29 03:40:03;;;;;;;24.77;15.77;;;10.40;99.90;;;;;;5060922;28;20194;-79
2023/04/29 03:42:28;;;;;;;26.35;14.55;;;10.40;99.90;;;;;;5050468;28;20322;-78
2023/04/29 03:44:54;;;;;;;20.15;14.98;;;10.40;99.90;;;;;;5051784;28;20799;-78
2023/04/29 03:47:19;;;;;;;24.95;14.77;;;10.40;99.90;;;;;;5049106;28;20265;-78
2023/04/29 03:49:45;;;;;;;27.67;15.75;;;10.40;99.90;;;;;;5050802;28;20178;-78
2023/04/29 03:52:11;;;;;;;23.08;15.70;;;10.40;99.90;;;;;;5042009;28;20183;-79
2023/04/29 03:54:37;;;;;;;22.42;14.55;;;10.50;99.90;;;;;;5044440;28;20199;-78
2023/04/29 03:57:03;;;;;;;25.35;15.90;;;10.40;99.90;;;;;;5055132;28;20195;-77
2023/04/29 03:59:29;;;;;;;27.23;15.55;;;10.40;99.90;;;;;;5049542;28;20190;-77
2023/04/29 04:01:55;;;;;;;25.48;14.60;;;10.40;99.90;;;;;;5051263;28;20172;-77
2023/04/29 04:04:20;;;;;;;24.85;15.82;;;10.30;99.90;;;;;;5057398;28;20778;-78
2023/04/29 04:06:50;;;;;;;32.75;16.13;;;10.30;99.90;;;;;;5052066;28;20196;-77
2023/04/29 04:09:17;;;;;;;26.38;16.08;;;10.40;99.90;;;;;;5048572;28;20176;-77
2023/04/29 04:11:43;;;;;;;30.02;17.13;;;10.40;99.90;;;;;;5047119;28;20244;-77
2023/04/29 04:14:08;;;;;;;21.13;15.63;;;10.40;99.90;;;;;;5052922;28;20803;-75
2023/04/29 04:16:34;;;;;;;28.30;16.85;;;10.40;99.90;;;;;;5053586;28;20199;-77
2023/04/29 04:18:59;;;;;;;24.15;15.88;;;10.50;99.90;;;;;;5051520;28;20360;-76
2023/04/29 04:21:26;;;;;;;25.25;16.25;;;10.50;99.90;;;;;;5052362;28;20249;-75
2023/04/29 04:23:52;;;;;;;24.08;15.75;;;10.50;99.90;;;;;;5050062;28;20212;-77
2023/04/29 04:26:19;;;;;;;29.00;18.20;;;10.50;99.90;;;;;;5050160;28;20195;-76
2023/04/29 04:28:45;;;;;;;24.65;15.60;;;10.60;99.90;;;;;;5046079;28;20644;-77
2023/04/29 04:31:13;;;;;;;31.42;19.05;;;10.60;99.90;;;;;;5050241;28;20195;-77
2023/04/29 04:33:39;;;;;;;27.65;18.38;;;10.70;99.90;;;;;;5049594;28;20732;-75
2023/04/29 04:36:05;;;;;;;29.73;18.73;;;10.70;99.90;;;;;;5050383;28;20207;-76
2023/04/29 04:38:31;;;;;;;31.15;19.20;;;10.70;99.90;;;;;;5047791;28;20180;-76
2023/04/29 04:40:57;;;;;;;27.85;17.73;;;10.60;99.90;;;;;;5047636;28;20536;-80
2023/04/29 04:43:23;;;;;;;25.95;19.17;;;10.70;99.90;;;;;;5050577;28;20256;-78
2023/04/29 04:45:49;;;;;;;33.95;20.15;;;10.60;99.90;;;;;;5052752;28;20307;-77
2023/04/29 04:48:14;;;;;;;31.48;18.90;;;10.60;99.90;;;;;;5054969;28;20179;-75
2023/04/29 04:50:40;;;;;;;32.15;19.02;;;10.60;99.90;;;;;;5050309;28;20663;-75
2023/04/29 04:53:05;;;;;;;36.10;19.15;;;10.70;99.90;;;;;;5059209;28;20175;-75
2023/04/29 04:55:35;;;;;;;32.83;20.45;;;10.70;99.90;;;;;;5053207;28;20188;-75
2023/04/29 04:58:01;;;;;;;25.15;17.15;;;10.80;99.90;;;;;;5057603;28;20207;-74
2023/04/29 05:00:26;;;;;;;29.17;18.33;;;11.00;99.90;;;;;;5048694;28;20580;-74
2023/04/29 05:02:52;;;;;;;24.13;16.83;;;11.00;99.90;;;;;;5056940;28;20273;-75
2023/04/29 05:05:17;;;;;;;27.40;17.45;;;11.10;99.90;;;;;;5052016;28;20180;-74
2023/04/29 05:07:43;;;;;;;25.02;18.52;;;11.30;99.90;;;;;;5053824;28;20261;-75
2023/04/29 05:10:10;;;;;;;22.75;16.25;;;11.40;99.90;;;;;;5052775;28;20713;-73
2023/04/29 05:12:35;;;;;;;28.60;17.25;;;11.50;99.90;;;;;;5051207;28;20529;-74
2023/04/29 05:15:02;;;;;;;22.98;16.35;;;11.70;99.90;;;;;;5057652;28;20244;-74
2023/04/29 05:17:28;;;;;;;24.00;16.98;;;11.70;99.90;;;;;;5054731;28;20203;-74
2023/04/29 05:19:54;;;;;;;21.20;15.52;;;11.80;99.90;;;;;;5051905;28;20184;-75
2023/04/29 05:22:19;;;;;;;20.90;15.75;;;11.80;99.90;;;;;;5056700;28;21831;-74
2023/04/29 05:24:47;;;;;;;19.95;15.63;;;11.70;99.90;;;;;;5053775;28;20203;-74
2023/04/29 05:27:13;;;;;;;21.30;14.75;;;11.60;99.90;;;;;;5048830;28;20202;-74
2023/04/29 05:29:38;;;;;;;19.98;14.98;;;11.50;99.90;;;;;;5052334;28;20168;-74
2023/04/29 05:32:04;;;;;;;19.67;15.07;;;11.50;99.90;;;;;;5047398;28;20182;-74
2023/04/29 05:34:30;;;;;;;19.80;13.68;;;11.50;99.90;;;;;;5048813;28;20176;-74
2023/04/29 05:36:56;;;;;;;20.35;14.57;;;11.50;99.90;;;;;;5054919;28;20206;-78
2023/04/29 05:39:21;;;;;;;21.10;14.43;;;11.50;99.90;;;;;;5051104;28;20270;-76
2023/04/29 05:41:47;;;;;;;20.83;14.77;;;11.70;99.90;;;;;;5052163;28;20247;-76
2023/04/29 05:44:13;;;;;;;17.75;13.90;;;11.80;99.90;;;;;;5048106;28;20766;-78
2023/04/29 05:46:39;;;;;;;19.65;14.70;;;11.90;99.90;;;;;;5056176;28;20202;-76
2023/04/29 05:49:04;;;;;;;18.85;13.52;;;12.00;99.90;;;;;;5051889;28;20164;-76
2023/04/29 05:51:30;;;;;;;16.33;13.40;;;12.00;99.90;;;;;;5055730;28;20201;-77
2023/04/29 05:53:58;;;;;;;15.82;13.32;;;12.10;99.90;;;;;;5056623;28;20184;-76
2023/04/29 05:56:24;;;;;;;19.50;14.68;;;12.20;99.90;;;;;;5056641;28;20291;-77
2023/04/29 05:58:49;;;;;;;16.42;13.55;;;12.50;99.90;;;;;;5048951;28;20255;-77
2023/04/29 06:01:16;;;;;;;15.05;13.30;;;12.70;99.90;;;;;;5056289;28;20206;-77
2023/04/29 06:03:42;;;;;;;12.82;11.48;;;12.70;99.90;;;;;;5060930;28;20633;-76
2023/04/29 06:06:08;;;;;;;11.77;10.70;;;12.60;99.90;;;;;;5054653;28;20200;-76
2023/04/29 06:08:34;;;;;;;13.93;12.48;;;12.70;99.90;;;;;;5061654;28;20715;-77
2023/04/29 06:11:01;;;;;;;12.90;11.63;;;12.70;99.90;;;;;;5053423;28;20207;-76
2023/04/29 06:13:29;;;;;;;12.52;11.30;;;12.80;99.90;;;;;;5049573;28;20175;-75
2023/04/29 06:15:54;;;;;;;11.68;10.48;;;12.90;99.90;;;;;;5058101;28;20756;-76
2023/04/29 06:18:20;;;;;;;12.48;11.27;;;12.90;99.90;;;;;;5055647;28;20179;-76
2023/04/29 06:20:46;;;;;;;12.73;11.43;;;12.80;99.90;;;;;;5066765;28;20207;-78
2023/04/29 06:23:11;;;;;;;13.48;12.10;;;12.70;99.90;;;;;;5060831;28;20214;-76
2023/04/29 06:25:37;;;;;;;13.57;11.75;;;12.70;99.90;;;;;;5053534;28;20891;-76
2023/04/29 06:28:07;;;;;;;12.45;11.13;;;12.80;99.90;;;;;;5062049;28;20188;-76
2023/04/29 06:30:33;;;;;;;12.68;11.35;;;12.80;99.90;;;;;;5054522;28;20205;-77
2023/04/29 06:32:58;;;;;;;11.80;10.70;;;12.90;99.90;;;;;;5047773;28;20176;-76
2023/04/29 06:35:24;;;;;;;10.88;9.77;;;13.10;99.90;;;;;;5051886;28;20710;-78
2023/04/29 06:37:51;;;;;;;11.30;10.27;;;13.30;99.90;;;;;;5050925;28;20200;-76
2023/04/29 06:40:17;;;;;;;11.18;10.07;;;13.30;99.90;;;;;;5055765;28;20184;-76
2023/04/29 06:42:42;;;;;;;10.70;9.70;;;13.50;99.90;;;;;;5054024;28;20215;-76
2023/04/29 06:45:08;;;;;;;9.68;8.77;;;13.50;99.90;;;;;;5049100;28;20258;-76
2023/04/29 06:47:34;;;;;;;10.07;9.05;;;13.60;99.90;;;;;;5067105;28;20590;-77
2023/04/29 06:50:00;;;;;;;8.82;8.02;;;13.60;99.90;;;;;;5049046;28;20199;-78
2023/04/29 06:52:25;;;;;;;9.80;8.93;;;13.70;99.90;;;;;;5050970;28;20259;-76
2023/04/29 06:54:51;;;;;;;7.95;7.25;;;13.80;99.90;;;;;;5052428;28;20212;-76
2023/04/29 06:57:19;;;;;;;8.60;7.80;;;13.80;99.90;;;;;;5052979;28;20199;-77
2023/04/29 06:59:45;;;;;;;8.50;7.75;;;13.90;99.90;;;;;;5062594;28;20184;-76
2023/04/29 07:02:10;;;;;;;8.30;7.63;;;13.90;99.90;;;;;;5066172;28;20539;-76
2023/04/29 07:04:36;;;;;;;8.18;7.47;;;13.90;99.90;;;;;;5053520;28;20263;-78
2023/04/29 07:07:02;;;;;;;7.68;7.07;;;13.90;99.90;;;;;;5055094;28;20207;-74
2023/04/29 07:09:28;;;;;;;7.38;6.78;;;14.00;99.90;;;;;;5049380;28;20191;-75
2023/04/29 07:11:54;;;;;;;6.22;5.75;;;13.90;99.90;;;;;;5053094;28;20172;-76
2023/04/29 07:14:21;;;;;;;6.53;6.03;;;14.00;99.90;;;;;;5052312;28;20175;-76
2023/04/29 07:16:47;;;;;;;7.03;6.43;;;14.00;99.90;;;;;;5052920;28;20203;-78
2023/04/29 07:19:12;;;;;;;5.82;5.43;;;14.00;99.90;;;;;;5051252;28;20180;-76
2023/04/29 07:21:38;;;;;;;5.90;5.50;;;14.10;99.90;;;;;;5050552;28;20611;-76
2023/04/29 07:24:04;;;;;;;5.95;5.43;;;14.20;99.90;;;;;;5048907;28;20221;-76
2023/04/29 07:26:31;;;;;;;6.00;5.50;;;14.40;99.90;;;;;;5055064;28;20261;-78
2023/04/29 07:28:57;;;;;;;5.75;5.25;;;14.70;99.90;;;;;;5049200;28;20187;-77
2023/04/29 07:31:22;;;;;;;5.57;5.07;;;14.90;99.90;;;;;;5043987;28;20763;-76
2023/04/29 07:33:48;;;;;;;4.95;4.55;;;15.10;99.90;;;;;;5046593;28;20191;-78
2023/04/29 07:36:14;;;;;;;4.65;4.35;;;15.30;99.90;;;;;;5048457;28;20286;-76
2023/04/29 07:38:39;;;;;;;4.53;4.22;;;15.50;99.90;;;;;;5049668;28;20724;-77
2023/04/29 07:41:05;;;;;;;3.60;3.40;;;15.70;99.90;;;;;;5051571;28;20180;-78
2023/04/29 07:43:30;;;;;;;3.63;3.40;;;15.90;99.90;;;;;;5050776;28;20291;-77
2023/04/29 07:45:56;;;;;;;3.63;3.35;;;16.20;99.90;;;;;;5051874;28;20208;-78
2023/04/29 07:48:22;;;;;;;3.25;3.00;;;16.50;99.90;;;;;;5052875;28;20236;-77
2023/04/29 07:50:48;;;;;;;2.60;2.50;;;16.70;99.90;;;;;;5046075;28;20271;-76
2023/04/29 07:53:14;;;;;;;2.45;2.25;;;16.70;99.90;;;;;;5052172;28;20179;-76
2023/04/29 07:55:40;;;;;;;2.65;2.55;;;16.80;99.90;;;;;;5047600;28;20216;-77
2023/04/29 07:58:09;;;;;;;2.60;2.47;;;16.80;99.90;;;;;;5051157;28;20234;-76
2023/04/29 08:00:35;;;;;;;3.33;2.47;;;16.80;99.90;;;;;;5052188;28;20184;-76
2023/04/29 08:03:01;;;;;;;2.50;2.40;;;16.80;99.90;;;;;;5053387;28;20344;-76
2023/04/29 08:05:27;;;;;;;2.50;2.40;;;16.90;99.90;;;;;;5052775;28;20182;-77
2023/04/29 08:07:53;;;;;;;2.55;2.35;;;17.00;99.90;;;;;;5060094;28;20201;-76
2023/04/29 08:10:18;;;;;;;3.13;2.40;;;17.40;99.90;;;;;;5048403;28;20294;-76
2023/04/29 08:12:48;;;;;;;3.67;2.40;;;17.70;99.90;;;;;;5062001;28;20184;-75
2023/04/29 08:15:14;;;;;;;1.88;1.77;;;17.90;99.90;;;;;;5052712;28;20184;-76
2023/04/29 08:17:39;;;;;;;2.22;2.13;;;18.00;99.90;;;;;;5071461;28;20261;-77
2023/04/29 08:20:07;;;;;;;2.33;2.20;;;18.00;99.90;;;;;;5072475;28;20579;-77
2023/04/29 08:22:33;;;;;;;2.13;2.03;;;17.90;99.90;;;;;;5064906;28;20196;-77
2023/04/29 08:24:58;;;;;;;3.08;2.58;;;17.60;99.90;;;;;;5055746;28;20226;-77
2023/04/29 08:27:24;;;;;;;2.60;2.40;;;17.20;99.90;;;;;;5056942;28;20200;-77
2023/04/29 08:29:50;;;;;;;2.38;2.28;;;16.90;99.90;;;;;;5058153;28;20207;-77
2023/04/29 08:32:16;;;;;;;2.42;2.33;;;16.70;99.90;;;;;;5060658;28;20181;-77
2023/04/29 08:34:43;;;;;;;2.40;1.90;;;16.50;99.90;;;;;;5075902;28;20192;-77
2023/04/29 08:37:09;;;;;;;2.50;2.40;;;16.50;99.90;;;;;;5062458;28;20258;-77
2023/04/29 08:39:35;;;;;;;2.22;2.13;;;16.80;99.90;;;;;;5057157;28;20199;-77
2023/04/29 08:42:07;;;;;;;2.15;2.05;;;17.40;99.90;;;;;;5054878;28;20184;-77
2023/04/29 08:44:34;;;;;;;2.30;2.08;;;17.80;99.90;;;;;;5070421;28;20203;-77
2023/04/29 08:47:00;;;;;;;2.17;2.08;;;18.30;99.90;;;;;;5050168;28;20191;-78
2023/04/29 08:49:27;;;;;;;2.28;2.17;;;18.80;99.90;;;;;;5056504;28;20651;-78
2023/04/29 08:51:53;;;;;;;2.30;2.20;;;19.20;99.90;;;;;;5055953;28;20187;-77
2023/04/29 08:54:19;;;;;;;2.55;2.45;;;19.40;99.90;;;;;;5056242;28;20646;-78
2023/04/29 08:56:48;;;;;;;2.10;2.00;;;19.60;99.90;;;;;;5049731;28;20208;-78
2023/04/29 08:59:15;;;;;;;2.72;1.92;;;19.60;99.90;;;;;;5052662;28;20176;-77
2023/04/29 09:01:43;;;;;;;1.75;1.73;;;19.50;99.90;;;;;;5054451;28;20191;-77
2023/04/29 09:04:30;;;;;;;2.40;2.30;;;19.50;99.90;;;;;;5051915;28;20241;-77
2023/04/29 09:06:58;;;;;;;2.10;2.00;;;19.50;99.90;;;;;;5053312;28;20192;-79
2023/04/29 09:09:27;;;;;;;2.00;1.90;;;19.40;99.90;;;;;;5055695;28;20183;-78
2023/04/29 09:11:54;;;;;;;1.40;1.40;;;19.30;99.90;;;;;;5055856;28;20176;-76
2023/04/29 09:14:21;;;;;;;2.00;1.90;;;19.40;99.90;;;;;;5052927;28;20179;-76
2023/04/29 09:16:47;;;;;;;2.78;1.48;;;19.90;99.90;;;;;;5055089;28;20706;-78
2023/04/29 09:19:32;;;;;;;2.80;1.85;;;20.30;99.90;;;;;;5054047;28;20253;-78
2023/04/29 09:21:58;;;;;;;2.20;2.10;;;20.70;99.90;;;;;;5048262;28;20617;-78
2023/04/29 09:24:29;;;;;;;1.92;1.83;;;20.80;99.90;;;;;;5058911;28;20206;-78
2023/04/29 09:26:55;;;;;;;2.13;2.03;;;20.50;99.90;;;;;;5051118;28;20192;-78
2023/04/29 09:29:21;;;;;;;2.15;2.05;;;20.40;99.90;;;;;;5055800;28;20180;-79
2023/04/29 09:31:48;;;;;;;2.00;1.90;;;20.40;99.90;;;;;;5055912;28;20199;-78
2023/04/29 09:34:14;;;;;;;1.77;1.67;;;20.50;99.90;;;;;;5051487;28;20211;-79
2023/04/29 09:36:44;;;;;;;1.75;1.65;;;20.10;99.90;;;;;;5053656;28;20211;-78
2023/04/29 09:39:17;;;;;;;1.80;1.40;;;19.70;99.90;;;;;;5056002;28;20233;-79
2023/04/29 09:41:50;;;;;;;1.75;1.65;;;19.40;99.90;;;;;;5074716;28;20184;-78
2023/04/29 09:44:16;;;;;;;1.58;1.58;;;19.20;99.90;;;;;;5055037;28;20210;-79
2023/04/29 09:46:41;;;;;;;1.55;1.50;;;19.00;99.90;;;;;;5054952;28;20198;-78
2023/04/29 09:49:23;;;;;;;1.35;1.33;;;18.90;99.90;;;;;;5055124;28;20266;-78
2023/04/29 09:51:57;;;;;;;1.98;1.88;;;18.70;99.90;;;;;;5051688;28;21318;-78
2023/04/29 09:54:35;;;;;;;2.75;1.67;;;18.50;99.90;;;;;;5053292;28;20236;-78
2023/04/29 09:57:03;;;;;;;1.70;1.60;;;18.80;99.90;;;;;;5052524;28;20207;-78
2023/04/29 09:59:29;;;;;;;1.52;1.52;;;19.20;99.90;;;;;;5052226;28;20184;-78
2023/04/29 10:01:56;;;;;;;1.50;1.50;;;19.40;99.90;;;;;;5052629;28;20550;-79
2023/04/29 10:04:24;;;;;;;1.88;1.77;;;19.40;99.90;;;;;;5049946;28;20211;-79
2023/04/29 10:06:53;;;;;;;2.65;1.90;;;19.30;99.90;;;;;;5050488;28;20200;-79
2023/04/29 10:09:20;;;;;;;3.08;1.98;;;19.30;99.90;;;;;;5053314;28;20173;-78
2023/04/29 10:11:47;;;;;;;2.53;2.40;;;19.30;99.90;;;;;;5052029;28;20662;-79
2023/04/29 10:14:18;;;;;;;2.20;1.80;;;19.10;99.90;;;;;;5051183;28;20187;-78
2023/04/29 10:17:11;;;;;;;2.00;1.90;;;18.60;99.90;;;;;;5052184;28;20631;-78
2023/04/29 10:19:50;;;;;;;4.13;2.13;;;18.30;99.90;;;;;;5034693;28;20732;-79
2023/04/29 10:22:32;;;;;;;2.25;2.10;;;17.90;99.90;;;;;;5057414;28;20228;-78
2023/04/29 10:25:00;;;;;;;2.25;2.15;;;17.90;99.90;;;;;;5053792;28;20192;-79
2023/04/29 10:27:27;;;;;;;2.50;2.38;;;18.00;99.90;;;;;;5054506;28;21105;-80
2023/04/29 10:29:55;;;;;;;2.53;2.28;;;18.30;99.90;;;;;;5062131;28;20181;-81
2023/04/29 10:32:21;;;;;;;2.75;2.55;;;18.40;99.90;;;;;;5062069;28;20267;-81
2023/04/29 10:34:48;;;;;;;2.70;2.50;;;18.30;99.90;;;;;;5062156;28;20191;-81
2023/04/29 10:37:15;;;;;;;2.13;2.03;;;18.10;99.90;;;;;;5067806;28;20203;-81
2023/04/29 10:39:42;;;;;;;2.30;2.20;;;18.00;99.90;;;;;;5060902;28;20208;-81
2023/04/29 10:42:38;;;;;;;2.90;2.80;;;17.90;99.90;;;;;;5058957;28;20647;-82
2023/04/29 10:45:22;;;;;;;2.50;2.30;;;18.00;99.90;;;;;;5061309;28;20591;-82
2023/04/29 10:48:04;;;;;;;3.20;2.90;;;18.30;99.90;;;;;;5072735;28;20660;-81
2023/04/29 10:50:50;;;;;;;3.97;3.55;;;18.40;99.90;;;;;;5064267;28;20199;-81
2023/04/29 10:53:21;;;;;;;2.90;2.70;;;18.10;99.90;;;;;;5050878;28;20275;-83
2023/04/29 10:55:51;;;;;;;2.80;2.70;;;18.20;99.90;;;;;;5059789;28;20180;-82
2023/04/29 10:58:39;;;;;;;3.30;3.10;;;18.20;99.90;;;;;;5066162;28;20183;-81
2023/04/29 11:01:06;;;;;;;2.90;2.80;;;18.00;99.90;;;;;;5062222;28;20207;-81
2023/04/29 11:03:58;;;;;;;3.17;2.97;;;18.00;99.90;;;;;;5062595;28;20267;-81
2023/04/29 11:06:40;;;;;;;3.50;3.30;;;18.00;99.90;;;;;;5060406;28;20242;-81
2023/04/29 11:09:11;;;;;;;3.05;2.83;;;18.40;99.90;;;;;;5058363;28;20218;-81
2023/04/29 11:12:02;;;;;;;4.32;2.90;;;19.20;99.90;;;;;;5053091;28;20176;-81
2023/04/29 11:14:31;;;;;;;2.72;2.45;;;20.50;99.90;;;;;;5056013;28;20179;-81
2023/04/29 11:17:02;;;;;;;2.58;2.25;;;21.80;99.90;;;;;;5055621;28;20199;-81
2023/04/29 11:19:50;;;;;;;2.70;2.50;;;23.00;99.80;;;;;;5048842;28;20194;-82
2023/04/29 11:22:22;;;;;;;2.60;2.50;;;24.20;93.60;;;;;;5052546;28;20258;-82
2023/04/29 11:24:51;;;;;;;2.90;2.70;;;24.40;91.00;;;;;;5051456;28;20207;-82
2023/04/29 11:27:18;;;;;;;3.28;2.90;;;24.40;92.40;;;;;;5051392;28;20733;-81
2023/04/29 11:29:45;;;;;;;2.42;2.30;;;24.60;87.90;;;;;;5054278;28;20187;-80
2023/04/29 11:32:11;;;;;;;2.42;2.33;;;24.00;90.90;;;;;;5051545;28;20319;-81
2023/04/29 11:34:36;;;;;;;2.75;2.50;;;23.70;90.50;;;;;;5042855;28;20271;-83
2023/04/29 11:37:04;;;;;;;2.38;2.28;;;23.40;91.20;;;;;;5054969;28;20211;-84
2023/04/29 11:39:34;;;;;;;2.00;1.90;;;22.70;91.70;;;;;;5066993;28;20192;-83
2023/04/29 11:42:07;;;;;;;2.95;2.40;;;22.10;93.20;;;;;;5054433;28;20257;-82
2023/04/29 11:44:34;;;;;;;2.40;2.30;;;21.40;94.10;;;;;;5060354;28;20195;-83
2023/04/29 11:47:06;;;;;;;2.25;2.15;;;20.90;95.50;;;;;;5048841;28;20220;-81
2023/04/29 11:49:34;;;;;;;2.60;2.40;;;20.70;96.70;;;;;;5056235;28;20187;-82
2023/04/29 11:52:00;;;;;;;2.05;1.95;;;20.90;95.90;;;;;;5055061;28;20173;-84
2023/04/29 11:54:27;;;;;;;1.60;1.50;;;21.30;94.50;;;;;;5061484;28;20258;-83
2023/04/29 11:56:54;;;;;;;4.80;2.20;;;21.90;94.70;;;;;;5052819;28;20239;-82
2023/04/29 11:59:21;;;;;;;3.08;2.00;;;23.00;92.30;;;;;;5072494;28;20203;-82
2023/04/29 12:01:50;;;;;;;2.25;2.15;;;23.90;89.30;;;;;;5055535;28;20245;-83
2023/04/29 12:04:16;;;;;;;3.33;2.42;;;24.30;85.50;;;;;;5055455;28;20736;-82
2023/04/29 12:06:42;;;;;;;2.65;2.08;;;24.10;86.50;;;;;;5057912;28;20583;-82
2023/04/29 12:09:08;;;;;;;2.28;2.17;;;23.80;86.70;;;;;;5061380;28;20274;-84
2023/04/29 12:11:35;;;;;;;1.90;1.90;;;23.30;88.90;;;;;;5069200;28;20186;-83
2023/04/29 12:14:04;;;;;;;2.55;2.35;;;23.00;88.60;;;;;;5058777;28;20191;-82
2023/04/29 12:16:31;;;;;;;2.28;2.17;;;22.40;89.50;;;;;;5060234;28;20207;-82
2023/04/29 12:18:57;;;;;;;2.30;2.20;;;21.60;90.60;;;;;;5057857;28;20180;-82
2023/04/29 12:21:23;;;;;;;2.08;1.98;;;21.10;91.00;;;;;;5063653;28;20192;-80
2023/04/29 12:23:50;;;;;;;1.85;1.77;;;20.50;91.70;;;;;;5056222;28;20242;-81
2023/04/29 12:26:18;;;;;;;2.25;2.15;;;20.20;93.30;;;;;;5073238;28;20204;-82
2023/04/29 12:28:43;;;;;;;1.85;1.75;;;20.20;93.30;;;;;;5063780;28;20279;-82
2023/04/29 12:31:12;;;;;;;2.20;2.10;;;19.80;93.50;;;;;;5062841;28;20204;-82
2023/04/29 12:33:43;;;;;;;1.95;1.85;;;19.80;95.00;;;;;;5058930;28;20246;-80
2023/04/29 12:36:19;;;;;;;2.75;2.30;;;19.60;93.60;;;;;;5064450;28;20210;-81
2023/04/29 12:38:46;;;;;;;2.33;2.15;;;19.30;95.10;;;;;;5059315;28;20183;-82